sensor_id;sensor_type;location;lat;lon;timestamp;pressure;altitude;pressure_sealevel;temperature;humidity
31044;BME280;17710;52.520;13.352;2022-11-15T00:01:07;101180.41;;;11.47;60.62
31044;BME280;17710;52.520;13.352;2022-11-15T00:03:34;101192.72;;;11.48;60.70
31044;BME280;17710;52.520;13.352;2022-11-15T00:06:02;101174.06;;;11.79;59.89
31044;BME280;17710;52.520;13.352;2022-11-15T00:08:30;101170.66;;;11.76;59.84
31044;BME280;17710;52.520;13.352;2022-11-15T00:11:00;101181.50;;;11.68;60.18
31044;BME280;17710;52.520;13.352;2022-11-15T00:13:27;101171.44;;;11.51;60.57
31044;BME280;17710;52.520;13.352;2022-11-15T00:15:56;101169.28;;;11.63;60.23
31044;BME280;17710;52.520;13.352;2022-11-15T00:18:23;101163.72;;;11.72;60.27
31044;BME280;17710;52.520;13.352;2022-11-15T00:20:50;101147.53;;;11.54;60.33
31044;BME280;17710;52.520;13.352;2022-11-15T00:23:16;101150.47;;;11.72;60.25
31044;BME280;17710;52.520;13.352;2022-11-15T00:25:43;101153.03;;;11.48;60.63
31044;BME280;17710;52.520;13.352;2022-11-15T00:28:11;101155.84;;;11.69;60.03
31044;BME280;17710;52.520;13.352;2022-11-15T00:30:37;101146.25;;;11.92;59.48
31044;BME280;17710;52.520;13.352;2022-11-15T00:33:05;101135.72;;;11.65;60.01
31044;BME280;17710;52.520;13.352;2022-11-15T00:35:33;101143.00;;;11.58;60.34
31044;BME280;17710;52.520;13.352;2022-11-15T00:38:00;101138.47;;;11.62;60.02
31044;BME280;17710;52.520;13.352;2022-11-15T00:40:28;101142.06;;;11.33;60.86
31044;BME280;17710;52.520;13.352;2022-11-15T00:42:55;101136.28;;;11.48;60.49
31044;BME280;17710;52.520;13.352;2022-11-15T00:45:23;101138.41;;;11.63;60.03
31044;BME280;17710;52.520;13.352;2022-11-15T00:47:49;101132.78;;;11.47;60.60
31044;BME280;17710;52.520;13.352;2022-11-15T00:50:16;101128.72;;;11.62;60.33
31044;BME280;17710;52.520;13.352;2022-11-15T00:52:43;101127.94;;;11.60;60.13
31044;BME280;17710;52.520;13.352;2022-11-15T00:55:13;101125.94;;;11.40;60.63
31044;BME280;17710;52.520;13.352;2022-11-15T00:57:40;101128.38;;;11.20;60.84
31044;BME280;17710;52.520;13.352;2022-11-15T01:00:07;101130.78;;;11.54;59.91
31044;BME280;17710;52.520;13.352;2022-11-15T01:02:35;101134.34;;;11.27;60.84
31044;BME280;17710;52.520;13.352;2022-11-15T01:05:02;101127.31;;;11.26;61.17
31044;BME280;17710;52.520;13.352;2022-11-15T01:07:29;101130.63;;;11.32;60.73
31044;BME280;17710;52.520;13.352;2022-11-15T01:09:56;101122.06;;;11.50;60.42
31044;BME280;17710;52.520;13.352;2022-11-15T01:12:22;101118.91;;;11.13;60.96
31044;BME280;17710;52.520;13.352;2022-11-15T01:14:49;101119.88;;;11.37;60.68
31044;BME280;17710;52.520;13.352;2022-11-15T01:17:15;101124.63;;;11.27;60.95
31044;BME280;17710;52.520;13.352;2022-11-15T01:19:43;101121.09;;;11.27;60.71
31044;BME280;17710;52.520;13.352;2022-11-15T01:22:10;101118.31;;;11.31;60.44
31044;BME280;17710;52.520;13.352;2022-11-15T01:24:36;101108.13;;;11.45;60.43
31044;BME280;17710;52.520;13.352;2022-11-15T01:27:03;101102.22;;;11.37;60.58
31044;BME280;17710;52.520;13.352;2022-11-15T01:29:29;101102.53;;;11.54;59.89
31044;BME280;17710;52.520;13.352;2022-11-15T01:31:56;101098.25;;;11.50;59.80
31044;BME280;17710;52.520;13.352;2022-11-15T01:34:23;101095.16;;;11.38;60.06
31044;BME280;17710;52.520;13.352;2022-11-15T01:36:51;101089.81;;;11.13;60.89
31044;BME280;17710;52.520;13.352;2022-11-15T01:39:18;101097.47;;;11.22;60.67
31044;BME280;17710;52.520;13.352;2022-11-15T01:41:45;101096.78;;;11.15;60.56
31044;BME280;17710;52.520;13.352;2022-11-15T01:44:43;101083.19;;;11.26;60.79
31044;BME280;17710;52.520;13.352;2022-11-15T01:47:14;101084.53;;;10.85;61.55
31044;BME280;17710;52.520;13.352;2022-11-15T01:49:49;101073.44;;;11.02;61.33
31044;BME280;17710;52.520;13.352;2022-11-15T01:52:20;101073.44;;;11.02;60.97
31044;BME280;17710;52.520;13.352;2022-11-15T01:54:50;101071.97;;;11.19;60.72
31044;BME280;17710;52.520;13.352;2022-11-15T01:57:19;101060.72;;;11.13;60.35
31044;BME280;17710;52.520;13.352;2022-11-15T01:59:46;101060.00;;;11.08;nan
31044;BME280;17710;52.520;13.352;2022-11-15T02:02:15;101058.03;;;10.87;61.25
31044;BME280;17710;52.520;13.352;2022-11-15T02:04:43;101048.34;;;10.87;61.50
31044;BME280;17710;52.520;13.352;2022-11-15T02:07:12;101048.69;;;11.03;61.18
31044;BME280;17710;52.520;13.352;2022-11-15T02:09:41;101049.19;;;11.15;60.70
31044;BME280;17710;52.520;13.352;2022-11-15T02:12:09;101040.88;;;11.26;60.56
31044;BME280;17710;52.520;13.352;2022-11-15T02:14:39;101049.53;;;10.77;61.64
31044;BME280;17710;52.520;13.352;2022-11-15T02:17:16;101054.34;;;10.92;61.32
31044;BME280;17710;52.520;13.352;2022-11-15T02:20:12;101046.97;;;11.02;60.99
31044;BME280;17710;52.520;13.352;2022-11-15T02:22:51;101047.97;;;10.98;60.94
31044;BME280;17710;52.520;13.352;2022-11-15T02:25:37;101051.88;;;10.86;61.60
31044;BME280;17710;52.520;13.352;2022-11-15T02:28:23;101048.28;;;10.89;61.46
31044;BME280;17710;52.520;13.352;2022-11-15T02:30:55;101051.25;;;11.06;60.90
31044;BME280;17710;52.520;13.352;2022-11-15T02:33:30;101051.00;;;11.13;60.71
31044;BME280;17710;52.520;13.352;2022-11-15T02:36:02;101058.66;;;10.95;60.98
31044;BME280;17710;52.520;13.352;2022-11-15T02:38:34;101054.63;;;11.09;60.74
31044;BME280;17710;52.520;13.352;2022-11-15T02:41:07;101048.22;;;11.16;60.65
31044;BME280;17710;52.520;13.352;2022-11-15T02:43:38;101044.22;;;11.05;60.35
31044;BME280;17710;52.520;13.352;2022-11-15T02:46:29;101042.91;;;11.18;60.28
31044;BME280;17710;52.520;13.352;2022-11-15T02:49:15;101036.50;;;10.99;60.78
31044;BME280;17710;52.520;13.352;2022-11-15T02:51:44;101034.75;;;10.98;60.82
31044;BME280;17710;52.520;13.352;2022-11-15T02:54:12;101028.09;;;11.12;60.49
31044;BME280;17710;52.520;13.352;2022-11-15T02:56:40;101033.44;;;11.11;60.64
31044;BME280;17710;52.520;13.352;2022-11-15T02:59:19;101028.72;;;10.94;61.12
31044;BME280;17710;52.520;13.352;2022-11-15T03:02:00;101028.34;;;11.05;60.80
31044;BME280;17710;52.520;13.352;2022-11-15T03:04:35;101028.69;;;10.96;61.19
31044;BME280;17710;52.520;13.352;2022-11-15T03:07:09;101022.66;;;10.91;61.32
31044;BME280;17710;52.520;13.352;2022-11-15T03:09:40;101026.50;;;11.08;61.01
31044;BME280;17710;52.520;13.352;2022-11-15T03:12:13;101026.03;;;10.96;61.09
31044;BME280;17710;52.520;13.352;2022-11-15T03:14:47;101019.53;;;10.78;61.45
31044;BME280;17710;52.520;13.352;2022-11-15T03:17:23;101026.88;;;10.96;61.46
31044;BME280;17710;52.520;13.352;2022-11-15T03:19:54;101024.50;;;10.89;61.46
31044;BME280;17710;52.520;13.352;2022-11-15T03:22:24;101026.03;;;10.96;61.25
31044;BME280;17710;52.520;13.352;2022-11-15T03:24:54;101028.16;;;11.11;60.51
31044;BME280;17710;52.520;13.352;2022-11-15T03:27:25;101029.19;;;11.07;60.87
31044;BME280;17710;52.520;13.352;2022-11-15T03:29:56;101022.81;;;11.12;60.52
31044;BME280;17710;52.520;13.352;2022-11-15T03:32:27;101024.34;;;11.19;60.49
31044;BME280;17710;52.520;13.352;2022-11-15T03:34:57;101025.63;;;11.08;60.39
31044;BME280;17710;52.520;13.352;2022-11-15T03:37:29;101018.59;;;11.07;60.92
31044;BME280;17710;52.520;13.352;2022-11-15T03:39:58;101017.72;;;11.06;60.60
31044;BME280;17710;52.520;13.352;2022-11-15T03:42:29;101017.16;;;10.97;61.05
31044;BME280;17710;52.520;13.352;2022-11-15T03:45:02;101020.75;;;10.96;60.97
31044;BME280;17710;52.520;13.352;2022-11-15T03:47:36;101016.03;;;11.04;60.96
31044;BME280;17710;52.520;13.352;2022-11-15T03:50:08;101010.28;;;11.17;60.54
31044;BME280;17710;52.520;13.352;2022-11-15T03:52:37;101015.53;;;10.93;61.22
31044;BME280;17710;52.520;13.352;2022-11-15T03:55:05;101012.66;;;11.00;60.67
31044;BME280;17710;52.520;13.352;2022-11-15T03:57:32;101012.28;;;11.11;60.48
31044;BME280;17710;52.520;13.352;2022-11-15T03:59:59;101003.84;;;11.00;60.94
31044;BME280;17710;52.520;13.352;2022-11-15T04:02:25;101004.69;;;11.02;60.73
31044;BME280;17710;52.520;13.352;2022-11-15T04:04:54;101007.41;;;10.99;60.99
31044;BME280;17710;52.520;13.352;2022-11-15T04:07:21;101002.22;;;10.69;61.73
31044;BME280;17710;52.520;13.352;2022-11-15T04:09:47;101010.03;;;10.99;60.85
31044;BME280;17710;52.520;13.352;2022-11-15T04:12:29;101001.41;;;10.94;61.15
31044;BME280;17710;52.520;13.352;2022-11-15T04:14:59;101006.97;;;11.37;60.18
31044;BME280;17710;52.520;13.352;2022-11-15T04:17:37;101000.34;;;10.99;60.63
31044;BME280;17710;52.520;13.352;2022-11-15T04:20:08;100999.44;;;11.00;60.91
31044;BME280;17710;52.520;13.352;2022-11-15T04:22:54;101003.19;;;10.93;61.08
31044;BME280;17710;52.520;13.352;2022-11-15T04:25:38;101001.69;;;10.85;61.29
31044;BME280;17710;52.520;13.352;2022-11-15T04:28:05;100992.91;;;11.10;60.74
31044;BME280;17710;52.520;13.352;2022-11-15T04:30:31;101002.16;;;11.24;60.26
31044;BME280;17710;52.520;13.352;2022-11-15T04:32:58;101001.56;;;11.15;60.49
31044;BME280;17710;52.520;13.352;2022-11-15T04:35:26;100995.25;;;11.19;60.71
31044;BME280;17710;52.520;13.352;2022-11-15T04:37:52;100992.69;;;10.90;60.99
31044;BME280;17710;52.520;13.352;2022-11-15T04:40:18;100993.44;;;10.95;61.29
31044;BME280;17710;52.520;13.352;2022-11-15T04:42:44;100994.47;;;10.90;61.24
31044;BME280;17710;52.520;13.352;2022-11-15T04:45:11;100987.41;;;11.16;60.58
31044;BME280;17710;52.520;13.352;2022-11-15T04:47:37;100984.84;;;11.15;60.42
31044;BME280;17710;52.520;13.352;2022-11-15T04:50:05;100981.41;;;10.85;61.22
31044;BME280;17710;52.520;13.352;2022-11-15T04:52:32;100979.94;;;10.76;61.39
31044;BME280;17710;52.520;13.352;2022-11-15T04:54:59;100978.88;;;11.08;60.60
31044;BME280;17710;52.520;13.352;2022-11-15T04:57:25;100972.06;;;11.01;60.88
31044;BME280;17710;52.520;13.352;2022-11-15T04:59:52;100983.06;;;10.89;60.70
31044;BME280;17710;52.520;13.352;2022-11-15T05:02:18;100979.19;;;10.99;61.04
31044;BME280;17710;52.520;13.352;2022-11-15T05:04:45;100986.97;;;11.04;60.63
31044;BME280;17710;52.520;13.352;2022-11-15T05:07:11;100986.66;;;11.13;60.25
31044;BME280;17710;52.520;13.352;2022-11-15T05:09:39;100984.69;;;10.93;61.00
31044;BME280;17710;52.520;13.352;2022-11-15T05:12:05;100991.13;;;11.11;60.35
31044;BME280;17710;52.520;13.352;2022-11-15T05:14:32;100987.34;;;11.18;60.01
31044;BME280;17710;52.520;13.352;2022-11-15T05:16:58;100989.56;;;11.05;60.36
31044;BME280;17710;52.520;13.352;2022-11-15T05:19:25;100987.97;;;11.00;60.46
31044;BME280;17710;52.520;13.352;2022-11-15T05:21:54;100991.03;;;10.88;60.99
31044;BME280;17710;52.520;13.352;2022-11-15T05:24:20;100988.53;;;11.09;60.30
31044;BME280;17710;52.520;13.352;2022-11-15T05:26:48;100992.91;;;10.84;61.12
31044;BME280;17710;52.520;13.352;2022-11-15T05:29:15;100994.38;;;10.93;60.72
31044;BME280;17710;52.520;13.352;2022-11-15T05:31:42;100984.31;;;10.77;61.16
31044;BME280;17710;52.520;13.352;2022-11-15T05:34:09;100995.63;;;10.83;61.19
31044;BME280;17710;52.520;13.352;2022-11-15T05:36:37;100988.28;;;10.91;61.03
31044;BME280;17710;52.520;13.352;2022-11-15T05:39:06;100989.75;;;10.73;61.61
31044;BME280;17710;52.520;13.352;2022-11-15T05:41:35;100985.41;;;10.70;61.97
31044;BME280;17710;52.520;13.352;2022-11-15T05:44:05;100984.00;;;10.87;61.18
31044;BME280;17710;52.520;13.352;2022-11-15T05:46:34;100982.91;;;10.94;60.74
31044;BME280;17710;52.520;13.352;2022-11-15T05:49:01;100979.16;;;11.01;60.25
31044;BME280;17710;52.520;13.352;2022-11-15T05:51:28;100987.06;;;10.74;61.05
31044;BME280;17710;52.520;13.352;2022-11-15T05:53:56;100985.88;;;10.83;60.83
31044;BME280;17710;52.520;13.352;2022-11-15T05:56:24;100983.34;;;11.06;60.02
31044;BME280;17710;52.520;13.352;2022-11-15T05:58:52;100992.84;;;10.86;60.57
31044;BME280;17710;52.520;13.352;2022-11-15T06:01:20;100990.50;;;11.03;60.01
31044;BME280;17710;52.520;13.352;2022-11-15T06:03:47;100985.97;;;10.82;60.74
31044;BME280;17710;52.520;13.352;2022-11-15T06:06:14;100998.06;;;10.89;60.40
31044;BME280;17710;52.520;13.352;2022-11-15T06:08:40;100994.81;;;11.07;59.87
31044;BME280;17710;52.520;13.352;2022-11-15T06:11:07;100992.31;;;11.02;59.79
31044;BME280;17710;52.520;13.352;2022-11-15T06:13:34;100990.25;;;11.10;60.18
31044;BME280;17710;52.520;13.352;2022-11-15T06:16:00;100994.88;;;11.04;60.00
31044;BME280;17710;52.520;13.352;2022-11-15T06:18:28;100992.97;;;11.09;60.30
31044;BME280;17710;52.520;13.352;2022-11-15T06:20:58;100989.94;;;10.95;60.59
31044;BME280;17710;52.520;13.352;2022-11-15T06:23:26;100992.16;;;11.07;60.22
31044;BME280;17710;52.520;13.352;2022-11-15T06:25:52;101000.25;;;11.02;60.02
31044;BME280;17710;52.520;13.352;2022-11-15T06:28:19;101001.88;;;11.06;60.05
31044;BME280;17710;52.520;13.352;2022-11-15T06:30:45;101000.53;;;11.19;59.82
31044;BME280;17710;52.520;13.352;2022-11-15T06:33:12;101006.47;;;11.26;59.95
31044;BME280;17710;52.520;13.352;2022-11-15T06:35:40;101001.91;;;11.05;60.01
31044;BME280;17710;52.520;13.352;2022-11-15T06:38:08;101010.22;;;11.21;59.98
31044;BME280;17710;52.520;13.352;2022-11-15T06:40:35;101006.09;;;11.12;60.06
31044;BME280;17710;52.520;13.352;2022-11-15T06:43:04;101001.69;;;11.11;60.06
31044;BME280;17710;52.520;13.352;2022-11-15T06:45:31;101009.34;;;10.94;61.02
31044;BME280;17710;52.520;13.352;2022-11-15T06:47:57;101005.66;;;10.98;60.81
31044;BME280;17710;52.520;13.352;2022-11-15T06:50:24;101005.91;;;11.16;60.10
31044;BME280;17710;52.520;13.352;2022-11-15T06:52:52;101014.31;;;11.03;60.49
31044;BME280;17710;52.520;13.352;2022-11-15T06:55:19;101014.19;;;11.07;60.47
31044;BME280;17710;52.520;13.352;2022-11-15T06:57:47;101013.47;;;11.53;58.95
31044;BME280;17710;52.520;13.352;2022-11-15T07:00:16;101014.34;;;11.54;58.69
31044;BME280;17710;52.520;13.352;2022-11-15T07:02:43;101010.66;;;11.33;59.45
31044;BME280;17710;52.520;13.352;2022-11-15T07:05:10;101017.25;;;11.46;59.30
31044;BME280;17710;52.520;13.352;2022-11-15T07:07:36;101015.81;;;11.36;59.10
31044;BME280;17710;52.520;13.352;2022-11-15T07:10:06;101020.56;;;11.27;60.05
31044;BME280;17710;52.520;13.352;2022-11-15T07:12:33;101019.28;;;11.38;59.34
31044;BME280;17710;52.520;13.352;2022-11-15T07:14:59;101017.56;;;11.62;58.94
31044;BME280;17710;52.520;13.352;2022-11-15T07:17:26;101023.84;;;11.35;59.32
31044;BME280;17710;52.520;13.352;2022-11-15T07:19:53;101024.34;;;11.19;59.98
31044;BME280;17710;52.520;13.352;2022-11-15T07:22:19;101024.66;;;11.62;58.85
31044;BME280;17710;52.520;13.352;2022-11-15T07:24:46;101026.72;;;11.27;59.83
31044;BME280;17710;52.520;13.352;2022-11-15T07:27:14;101033.56;;;11.34;59.52
31044;BME280;17710;52.520;13.352;2022-11-15T07:29:40;101029.84;;;11.65;58.93
31044;BME280;17710;52.520;13.352;2022-11-15T07:32:07;101028.13;;;11.62;58.99
31044;BME280;17710;52.520;13.352;2022-11-15T07:34:37;101027.38;;;11.85;58.71
31044;BME280;17710;52.520;13.352;2022-11-15T07:37:04;101023.56;;;11.67;58.93
31044;BME280;17710;52.520;13.352;2022-11-15T07:39:31;101025.41;;;11.90;58.42
31044;BME280;17710;52.520;13.352;2022-11-15T07:41:58;101024.81;;;11.82;58.71
31044;BME280;17710;52.520;13.352;2022-11-15T07:44:40;101028.00;;;11.91;58.11
31044;BME280;17710;52.520;13.352;2022-11-15T07:47:07;101035.97;;;11.91;58.48
31044;BME280;17710;52.520;13.352;2022-11-15T07:49:33;101024.72;;;12.08;57.79
31044;BME280;17710;52.520;13.352;2022-11-15T07:52:00;101028.06;;;11.90;58.22
31044;BME280;17710;52.520;13.352;2022-11-15T07:54:26;101021.06;;;12.12;57.89
31044;BME280;17710;52.520;13.352;2022-11-15T07:56:53;101020.41;;;12.29;57.47
31044;BME280;17710;52.520;13.352;2022-11-15T07:59:20;101024.97;;;12.25;57.54
31044;BME280;17710;52.520;13.352;2022-11-15T08:01:48;101012.75;;;12.45;57.15
31044;BME280;17710;52.520;13.352;2022-11-15T08:04:18;101013.00;;;12.38;57.27
31044;BME280;17710;52.520;13.352;2022-11-15T08:06:44;101021.06;;;12.12;58.10
31044;BME280;17710;52.520;13.352;2022-11-15T08:09:11;101012.88;;;12.18;57.73
31044;BME280;17710;52.520;13.352;2022-11-15T08:11:37;101010.78;;;12.50;56.91
31044;BME280;17710;52.520;13.352;2022-11-15T08:14:04;101008.16;;;12.71;56.21
31044;BME280;17710;52.520;13.352;2022-11-15T08:16:31;101002.44;;;12.81;56.11
31044;BME280;17710;52.520;13.352;2022-11-15T08:18:59;101006.84;;;13.03;55.51
31044;BME280;17710;52.520;13.352;2022-11-15T08:21:25;101009.75;;;12.97;55.76
31044;BME280;17710;52.520;13.352;2022-11-15T08:23:51;101008.72;;;13.00;55.58
31044;BME280;17710;52.520;13.352;2022-11-15T08:26:18;101007.34;;;12.91;56.24
31044;BME280;17710;52.520;13.352;2022-11-15T08:28:44;101007.59;;;12.85;56.32
31044;BME280;17710;52.520;13.352;2022-11-15T08:31:13;101007.63;;;13.05;55.77
31044;BME280;17710;52.520;13.352;2022-11-15T08:33:44;101002.59;;;12.99;55.95
31044;BME280;17710;52.520;13.352;2022-11-15T08:36:14;101001.97;;;13.14;55.54
31044;BME280;17710;52.520;13.352;2022-11-15T08:38:41;101003.31;;;13.25;55.72
31044;BME280;17710;52.520;13.352;2022-11-15T08:41:11;101007.03;;;13.61;54.44
31044;BME280;17710;52.520;13.352;2022-11-15T08:43:39;101006.50;;;13.53;54.65
31044;BME280;17710;52.520;13.352;2022-11-15T08:46:08;101007.03;;;13.61;54.39
31044;BME280;17710;52.520;13.352;2022-11-15T08:48:35;101008.09;;;13.37;54.56
31044;BME280;17710;52.520;13.352;2022-11-15T08:51:04;101004.38;;;13.41;54.80
31044;BME280;17710;52.520;13.352;2022-11-15T08:53:33;101003.81;;;13.73;53.97
31044;BME280;17710;52.520;13.352;2022-11-15T08:56:00;101008.53;;;13.87;53.87
31044;BME280;17710;52.520;13.352;2022-11-15T08:58:26;101007.88;;;13.82;53.70
31044;BME280;17710;52.520;13.352;2022-11-15T09:00:53;101014.94;;;13.63;54.11
31044;BME280;17710;52.520;13.352;2022-11-15T09:03:20;101014.44;;;13.73;54.14
31044;BME280;17710;52.520;13.352;2022-11-15T09:05:46;101010.72;;;13.98;53.37
31044;BME280;17710;52.520;13.352;2022-11-15T09:08:13;101018.72;;;14.16;53.20
31044;BME280;17710;52.520;13.352;2022-11-15T09:10:40;101002.53;;;14.21;52.80
31044;BME280;17710;52.520;13.352;2022-11-15T09:13:07;101009.31;;;14.28;52.57
31044;BME280;17710;52.520;13.352;2022-11-15T09:15:33;101006.56;;;14.11;53.32
31044;BME280;17710;52.520;13.352;2022-11-15T09:18:00;101002.03;;;14.13;52.79
31044;BME280;17710;52.520;13.352;2022-11-15T09:20:26;101004.16;;;14.05;52.95
31044;BME280;17710;52.520;13.352;2022-11-15T09:22:52;101007.44;;;14.30;52.56
31044;BME280;17710;52.520;13.352;2022-11-15T09:25:19;101001.63;;;14.59;52.18
31044;BME280;17710;52.520;13.352;2022-11-15T09:27:46;101001.91;;;14.72;51.54
31044;BME280;17710;52.520;13.352;2022-11-15T09:30:13;101006.00;;;14.60;51.71
31044;BME280;17710;52.520;13.352;2022-11-15T09:32:39;101011.91;;;14.67;51.54
31044;BME280;17710;52.520;13.352;2022-11-15T09:35:06;101007.47;;;14.49;51.94
31044;BME280;17710;52.520;13.352;2022-11-15T09:37:33;101016.50;;;14.99;51.22
31044;BME280;17710;52.520;13.352;2022-11-15T09:39:59;101014.50;;;14.68;51.80
31044;BME280;17710;52.520;13.352;2022-11-15T09:42:35;101015.75;;;14.79;51.14
31044;BME280;17710;52.520;13.352;2022-11-15T09:45:13;101012.47;;;14.73;51.44
31044;BME280;17710;52.520;13.352;2022-11-15T09:47:55;101009.75;;;14.75;51.62
31044;BME280;17710;52.520;13.352;2022-11-15T09:50:32;100997.31;;;14.93;51.19
31044;BME280;17710;52.520;13.352;2022-11-15T09:53:00;100994.03;;;14.88;51.12
31044;BME280;17710;52.520;13.352;2022-11-15T09:55:34;100999.28;;;14.89;51.79
31044;BME280;17710;52.520;13.352;2022-11-15T09:58:12;100992.19;;;15.24;50.94
31044;BME280;17710;52.520;13.352;2022-11-15T10:00:46;100994.09;;;15.57;50.22
31044;BME280;17710;52.520;13.352;2022-11-15T10:03:23;100983.81;;;15.66;49.78
31044;BME280;17710;52.520;13.352;2022-11-15T10:05:52;100984.28;;;15.57;49.97
31044;BME280;17710;52.520;13.352;2022-11-15T10:08:31;100988.75;;;15.74;49.26
31044;BME280;17710;52.520;13.352;2022-11-15T10:11:02;100981.31;;;15.63;49.57
31044;BME280;17710;52.520;13.352;2022-11-15T10:13:32;100978.97;;;15.57;49.77
31044;BME280;17710;52.520;13.352;2022-11-15T10:16:08;100969.25;;;15.73;49.65
31044;BME280;17710;52.520;13.352;2022-11-15T10:18:47;100971.06;;;15.88;49.11
31044;BME280;17710;52.520;13.352;2022-11-15T10:21:19;100971.38;;;16.00;49.08
31044;BME280;17710;52.520;13.352;2022-11-15T10:23:47;100957.78;;;16.04;48.82
31044;BME280;17710;52.520;13.352;2022-11-15T10:26:16;100955.47;;;16.14;48.56
31044;BME280;17710;52.520;13.352;2022-11-15T10:28:43;100946.59;;;16.29;48.29
31044;BME280;17710;52.520;13.352;2022-11-15T10:31:23;100948.34;;;16.30;47.86
31044;BME280;17710;52.520;13.352;2022-11-15T10:33:51;100940.50;;;16.11;48.25
31044;BME280;17710;52.520;13.352;2022-11-15T10:36:20;100944.22;;;16.24;48.55
31044;BME280;17710;52.520;13.352;2022-11-15T10:38:56;100925.28;;;16.29;48.12
31044;BME280;17710;52.520;13.352;2022-11-15T10:41:31;100922.84;;;16.56;47.66
31044;BME280;17710;52.520;13.352;2022-11-15T10:44:25;100929.13;;;16.55;47.59
31044;BME280;17710;52.520;13.352;2022-11-15T10:47:27;100930.38;;;16.65;47.18
31044;BME280;17710;52.520;13.352;2022-11-15T10:49:59;100918.13;;;16.29;48.08
31044;BME280;17710;52.520;13.352;2022-11-15T10:52:27;100914.66;;;16.60;47.73
31044;BME280;17710;52.520;13.352;2022-11-15T10:54:56;100907.47;;;16.45;47.95
31044;BME280;17710;52.520;13.352;2022-11-15T10:57:27;100905.84;;;16.43;48.06
31044;BME280;17710;52.520;13.352;2022-11-15T10:59:56;100902.94;;;16.31;48.50
31044;BME280;17710;52.520;13.352;2022-11-15T11:02:33;100901.69;;;16.68;47.77
31044;BME280;17710;52.520;13.352;2022-11-15T11:05:01;100898.91;;;16.86;47.57
31044;BME280;17710;52.520;13.352;2022-11-15T11:07:30;100900.28;;;16.93;47.44
31044;BME280;17710;52.520;13.352;2022-11-15T11:09:58;100892.75;;;16.69;47.62
31044;BME280;17710;52.520;13.352;2022-11-15T11:12:30;100888.84;;;16.75;47.57
31044;BME280;17710;52.520;13.352;2022-11-15T11:14:58;100881.03;;;16.72;47.88
31044;BME280;17710;52.520;13.352;2022-11-15T11:17:34;100884.38;;;16.76;47.71
31044;BME280;17710;52.520;13.352;2022-11-15T11:20:07;100882.94;;;16.70;47.66
31044;BME280;17710;52.520;13.352;2022-11-15T11:22:42;100878.28;;;16.73;47.68
31044;BME280;17710;52.520;13.352;2022-11-15T11:25:28;100874.84;;;16.71;47.85
31044;BME280;17710;52.520;13.352;2022-11-15T11:28:10;100872.00;;;16.59;48.12
31044;BME280;17710;52.520;13.352;2022-11-15T11:30:49;100873.44;;;16.80;48.00
31044;BME280;17710;52.520;13.352;2022-11-15T11:33:21;100880.91;;;16.89;47.66
31044;BME280;17710;52.520;13.352;2022-11-15T11:35:58;100875.50;;;16.75;47.87
31044;BME280;17710;52.520;13.352;2022-11-15T11:38:38;100874.97;;;16.84;47.96
31044;BME280;17710;52.520;13.352;2022-11-15T11:41:13;100877.19;;;16.92;47.79
31044;BME280;17710;52.520;13.352;2022-11-15T11:43:48;100871.31;;;17.15;47.50
31044;BME280;17710;52.520;13.352;2022-11-15T11:46:37;100874.19;;;17.12;47.43
31044;BME280;17710;52.520;13.352;2022-11-15T11:49:12;100867.56;;;16.89;47.91
31044;BME280;17710;52.520;13.352;2022-11-15T11:51:43;100866.03;;;16.85;48.04
31044;BME280;17710;52.520;13.352;2022-11-15T11:54:14;100866.22;;;16.96;48.17
31044;BME280;17710;52.520;13.352;2022-11-15T11:56:44;100860.94;;;17.10;47.82
31044;BME280;17710;52.520;13.352;2022-11-15T11:59:18;100858.44;;;17.07;47.61
31044;BME280;17710;52.520;13.352;2022-11-15T12:01:45;100857.78;;;17.18;47.78
31044;BME280;17710;52.520;13.352;2022-11-15T12:04:19;100851.88;;;17.27;47.26
31044;BME280;17710;52.520;13.352;2022-11-15T12:06:49;100847.50;;;17.26;47.35
31044;BME280;17710;52.520;13.352;2022-11-15T12:09:21;100840.25;;;17.28;47.37
31044;BME280;17710;52.520;13.352;2022-11-15T12:11:54;100845.66;;;17.27;47.44
31044;BME280;17710;52.520;13.352;2022-11-15T12:14:29;100845.69;;;17.41;47.55
31044;BME280;17710;52.520;13.352;2022-11-15T12:16:57;100840.06;;;17.45;47.29
31044;BME280;17710;52.520;13.352;2022-11-15T12:19:26;100836.03;;;17.52;47.09
31044;BME280;17710;52.520;13.352;2022-11-15T12:21:56;100840.75;;;17.63;46.92
31044;BME280;17710;52.520;13.352;2022-11-15T12:24:29;100837.88;;;17.52;47.15
31044;BME280;17710;52.520;13.352;2022-11-15T12:27:01;100837.31;;;17.61;47.20
31044;BME280;17710;52.520;13.352;2022-11-15T12:29:33;100827.00;;;17.69;47.06
31044;BME280;17710;52.520;13.352;2022-11-15T12:32:01;100831.09;;;17.75;47.13
31044;BME280;17710;52.520;13.352;2022-11-15T12:34:37;100827.56;;;17.74;46.92
31044;BME280;17710;52.520;13.352;2022-11-15T12:37:46;100821.09;;;17.78;46.90
31044;BME280;17710;52.520;13.352;2022-11-15T12:40:25;100816.25;;;17.98;46.62
31044;BME280;17710;52.520;13.352;2022-11-15T12:45:45;100802.78;;;18.26;46.04
31044;BME280;17710;52.520;13.352;2022-11-15T12:54:51;100796.91;;;18.33;45.49
31044;BME280;17710;52.520;13.352;2022-11-15T12:57:29;100795.91;;;18.49;45.27
31044;BME280;17710;52.520;13.352;2022-11-15T12:59:57;100790.38;;;18.64;45.40
31044;BME280;17710;52.520;13.352;2022-11-15T13:02:29;100794.91;;;18.77;44.99
31044;BME280;17710;52.520;13.352;2022-11-15T13:08:01;100784.84;;;19.18;43.93